Stations météo

réclame
Mon MeteoGroup
Puebla De D. Rodrigo, Espagne (8271): Température de l'air & dewpoint: 12.01.2019 13:00:00 - 18.01.2019 13:00:00 (CET)Puebla De D. Rodrigo, Espagne (8271): Vitesse du vent & gusts: 12.01.2019 13:00:00 - 18.01.2019 13:00:00 (CET)Puebla De D. Rodrigo, Espagne (8271): Direction du vent: 12.01.2019 13:00:00 - 18.01.2019 13:00:00 (CET)Puebla De D. Rodrigo, Espagne (8271): reduced air pressure: 12.01.2019 13:00:00 - 18.01.2019 13:00:00 (CET)Puebla De D. Rodrigo, Espagne (8271): Quantités de précipitations: 12.01.2019 13:00:00 - 18.01.2019 13:00:00 (CET)
Date & Time tt [°C] td [°C] ff [km/h] ff [knt] fx [km/h] fx [knt] dd ppp [hPa] rr [mm]
18.01.2019 13:00:00 - - - - - - - - -
18.01.2019 12:00:00 5,4 -1,2 0 0 7 4 N 1017,5 0,0
18.01.2019 11:00:00 2,0 -2,2 1 0 6 3 E 1018,5 0,0
18.01.2019 10:00:00 -0,2 -1,4 0 0 3 2 N 1018,1 0,0
18.01.2019 09:00:00 -3,3 -3,6 0 0 1 0 N 1018,6 0,0
18.01.2019 08:00:00 -2,1 -2,5 0 0 8 4 WSW 1017,9 0,0
18.01.2019 07:00:00 -2,0 -2,5 0 0 7 4 N 1017,3 -
18.01.2019 06:00:00 -1,5 -2,0 1 0 5 3 W 1017,0 0,0
18.01.2019 05:00:00 -0,8 -1,4 1 0 9 5 E 1017,0 0,0
18.01.2019 04:00:00 -0,1 -2,2 1 0 10 5 W 1017,2 0,0
18.01.2019 03:00:00 0,8 -1,4 1 1 12 7 N 1017,1 0,0
18.01.2019 02:00:00 2,7 -2,2 6 3 11 6 NW 1016,7 0,0
18.01.2019 01:00:00 4,2 -0,5 4 2 14 8 WNW 1016,7 -
18.01.2019 00:00:00 1,9 -2,7 1 1 13 7 NNW 1017,4 0,0
17.01.2019 23:00:00 4,2 -0,5 10 5 13 7 W 1016,5 0,0
17.01.2019 22:00:00 4,6 -0,7 5 3 10 5 W 1015,8 0,0
17.01.2019 21:00:00 5,7 -0,7 0 0 7 4 NE 1015,2 0,0
17.01.2019 20:00:00 6,5 -0,5 3 1 9 5 NNE 1014,6 0,3
17.01.2019 19:00:00 7,3 -0,3 0 0 7 4 N 1013,9 -
17.01.2019 18:00:00 7,8 0,2 0 0 9 5 NNE 1013,4 0,2
17.01.2019 17:00:00 8,5 -0,3 0 0 12 6 N 1012,9 0,0
17.01.2019 16:00:00 8,6 -0,3 0 0 0 0 N 1012,6 0,0
17.01.2019 15:00:00 8,6 -1,0 0 0 0 0 N 1012,6 0,0
17.01.2019 14:00:00 8,3 2,1 0 0 2 1 N 1013,1 0,4
17.01.2019 13:00:00 7,3 1,1 0 0 14 7 N 1014,2 -
17.01.2019 12:00:00 5,0 2,1 0 0 9 5 N 1015,6 0,0
17.01.2019 11:00:00 2,2 0,9 0 0 2 1 E 1016,4 0,0
17.01.2019 10:00:00 1,5 0,9 0 0 1 1 N 1015,5 0,1
17.01.2019 09:00:00 0,0 -0,5 1 0 7 4 NNE 1015,4 0,0
17.01.2019 08:00:00 0,1 -0,3 0 0 0 0 N 1015,1 0,0
17.01.2019 07:00:00 0,0 -0,5 0 0 0 0 N 1014,9 -
17.01.2019 06:00:00 1,2 0,4 0 0 8 5 N 1014,1 0,1
17.01.2019 05:00:00 1,0 -0,3 1 0 11 6 N 1014,6 0,1
17.01.2019 04:00:00 1,9 0,2 0 0 0 0 N 1014,7 0,0
17.01.2019 03:00:00 2,2 0,2 0 0 0 0 N 1015,0 0,1
17.01.2019 02:00:00 2,2 0,2 0 0 5 3 N 1015,1 0,0
17.01.2019 01:00:00 2,4 0,0 0 0 3 2 N 1015,3 -
17.01.2019 00:00:00 2,9 0,2 0 0 6 4 N 1015,4 0,0
16.01.2019 23:00:00 4,7 -0,7 0 0 9 5 W 1014,8 0,0
16.01.2019 22:00:00 5,7 -0,3 0 0 9 5 N 1014,7 0,0
16.01.2019 21:00:00 5,6 -0,3 0 0 7 4 N 1014,7 0,0
16.01.2019 20:00:00 6,4 0,6 0 0 8 5 W 1014,6 0,8
16.01.2019 19:00:00 6,3 2,1 3 1 5 3 W 1014,2 -
16.01.2019 18:00:00 7,4 1,9 0 0 0 0 N 1014,0 0,8
16.01.2019 17:00:00 7,7 2,3 0 0 0 0 N 1013,9 1,1
16.01.2019 16:00:00 7,4 1,9 0 0 5 3 N 1014,2 2,0
16.01.2019 15:00:00 6,5 1,9 1 1 9 5 SSE 1014,6 0,1
16.01.2019 14:00:00 4,9 1,3 2 1 7 4 S 1015,6 0,1
16.01.2019 13:00:00 2,5 0,0 0 0 0 0 N 1016,9 -
16.01.2019 12:00:00 0,4 -1,2 0 0 0 0 N 1018,4 0,0
16.01.2019 11:00:00 -0,8 -1,7 0 0 0 0 N 1018,6 0,0
16.01.2019 10:00:00 -2,0 -2,7 0 0 0 0 ENE 1018,3 0,0
16.01.2019 09:00:00 -4,0 -4,2 0 0 0 0 N 1018,6 0,0
16.01.2019 08:00:00 -3,8 -4,2 0 0 0 0 N 1018,2 0,4
16.01.2019 07:00:00 -2,1 -2,5 0 0 0 0 N 1017,7 -
16.01.2019 06:00:00 -2,3 -2,5 0 0 0 0 N 1017,5 0,0
16.01.2019 05:00:00 -2,6 -3,0 0 0 0 0 N 1018,2 0,0
16.01.2019 04:00:00 -0,9 -1,2 0 0 0 0 N 1018,2 0,0
16.01.2019 03:00:00 -0,6 -1,2 0 0 0 0 N 1018,0 0,0
16.01.2019 02:00:00 0,0 -0,5 0 0 0 0 N 1017,9 0,0
16.01.2019 01:00:00 0,2 -0,7 0 0 0 0 N 1017,8 -
16.01.2019 00:00:00 1,4 0,2 0 0 3 1 N 1017,8 0,0
15.01.2019 23:00:00 1,9 -0,3 0 0 0 0 N 1017,6 0,0
15.01.2019 22:00:00 3,5 0,0 0 0 0 0 N 1017,0 0,0
15.01.2019 21:00:00 5,4 -0,7 0 0 0 0 N 1016,3 0,0
15.01.2019 20:00:00 7,5 -1,0 0 0 0 0 N 1015,5 1,2
15.01.2019 19:00:00 9,6 -2,7 0 0 0 0 N 1014,6 -
15.01.2019 18:00:00 11,6 -4,5 0 0 0 0 N 1013,7 0,0
15.01.2019 17:00:00 14,0 -4,2 0 0 0 0 N 1013,3 0,0
15.01.2019 16:00:00 15,7 -3,3 0 0 0 0 N 1013,1 0,0
15.01.2019 15:00:00 13,4 -2,5 0 0 9 5 N 1013,8 0,0
15.01.2019 14:00:00 11,3 -2,0 3 2 9 5 ENE 1014,8 0,0
15.01.2019 13:00:00 7,7 -2,5 0 0 9 5 N 1016,6 -
15.01.2019 12:00:00 4,0 -2,2 0 0 8 5 N 1018,3 0,0
15.01.2019 11:00:00 0,7 -3,9 0 0 3 2 SE 1019,2 0,2
15.01.2019 10:00:00 -1,0 -3,6 1 0 4 2 SE 1019,5 0,1
15.01.2019 09:00:00 -3,1 -3,6 0 0 0 0 N 1019,5 0,0
15.01.2019 08:00:00 -3,6 -4,2 0 0 0 0 N 1019,2 0,0
15.01.2019 07:00:00 -4,0 -4,5 0 0 0 0 N 1018,8 -
15.01.2019 06:00:00 -2,9 -3,3 0 0 0 0 N 1018,3 0,0
15.01.2019 05:00:00 -1,6 -2,0 0 0 0 0 N 1018,4 0,2
15.01.2019 04:00:00 -1,5 -2,0 0 0 0 0 N 1019,0 0,5
15.01.2019 03:00:00 -1,4 -2,2 0 0 2 1 N 1018,9 0,0
15.01.2019 02:00:00 -0,7 -1,4 0 0 0 0 N 1018,9 0,3
15.01.2019 01:00:00 0,7 -0,7 0 0 4 2 N 1018,7 -
15.01.2019 00:00:00 1,4 -0,7 0 0 0 0 N 1018,8 0,0
14.01.2019 23:00:00 2,3 -1,2 0 0 1 0 N 1018,4 0,0
14.01.2019 22:00:00 3,8 -1,7 0 0 8 4 SW 1018,0 0,0
14.01.2019 21:00:00 5,6 -2,5 0 0 7 4 N 1017,4 0,0
14.01.2019 20:00:00 8,2 -2,7 1 1 11 6 WSW 1016,8 1,0
14.01.2019 19:00:00 10,2 -2,7 9 5 15 8 WSW 1016,0 -
14.01.2019 18:00:00 12,1 -5,1 8 4 14 7 WSW 1015,5 0,1
14.01.2019 17:00:00 17,3 -6,7 2 1 11 6 W 1014,4 0,0
14.01.2019 16:00:00 17,9 -4,8 0 0 0 0 N 1014,7 1,3
14.01.2019 15:00:00 16,7 -3,0 0 0 0 0 N 1015,4 0,7
14.01.2019 14:00:00 12,1 -3,6 0 0 0 0 N 1017,1 0,2
14.01.2019 13:00:00 - - - - - - - - -
14.01.2019 12:00:00 6,4 -2,5 1 1 6 4 E 1020,5 0,0
14.01.2019 11:00:00 2,5 -3,3 0 0 6 3 N 1022,2 0,0
14.01.2019 10:00:00 -0,2 -3,3 0 0 1 0 N 1022,4 0,0
14.01.2019 09:00:00 -3,3 -3,9 0 0 0 0 N 1022,9 0,0
14.01.2019 08:00:00 -4,1 -4,5 0 0 0 0 N 1023,1 0,0
14.01.2019 07:00:00 -3,5 -3,9 0 0 0 0 N 1022,8 -
14.01.2019 06:00:00 -3,1 -3,6 0 0 2 1 N 1023,1 0,0
14.01.2019 05:00:00 -1,8 -2,2 0 0 0 0 N 1023,2 0,0
14.01.2019 04:00:00 -2,3 -2,7 0 0 1 1 N 1023,4 0,0
14.01.2019 03:00:00 -1,9 -2,5 0 0 0 0 N 1023,5 0,0
14.01.2019 02:00:00 -1,1 -1,7 0 0 4 2 N 1023,3 0,0
14.01.2019 01:00:00 -0,6 -1,7 0 0 0 0 N 1023,4 -
14.01.2019 00:00:00 0,8 -0,5 0 0 4 2 SW 1023,6 0,0
13.01.2019 23:00:00 2,3 -0,3 0 0 6 4 N 1023,3 0,0
13.01.2019 22:00:00 3,1 -1,2 3 1 9 5 WSW 1023,0 0,0
13.01.2019 21:00:00 4,7 -1,7 0 0 6 3 NE 1022,6 0,1
13.01.2019 20:00:00 6,5 -3,0 6 4 11 6 W 1022,1 0,0
13.01.2019 19:00:00 7,8 -4,5 0 0 11 6 SW 1021,8 -
13.01.2019 18:00:00 11,3 -6,0 0 0 0 0 N 1020,8 0,6
13.01.2019 17:00:00 15,2 -4,8 0 0 0 0 N 1019,8 0,2
13.01.2019 16:00:00 13,7 -5,4 0 0 0 0 N 1020,5 0,2
13.01.2019 15:00:00 13,5 -4,8 0 0 0 0 N 1021,1 0,0
13.01.2019 14:00:00 11,5 -4,8 0 0 0 0 N 1022,2 0,0
13.01.2019 13:00:00 7,5 -5,1 0 0 9 5 E 1024,2 -
13.01.2019 12:00:00 3,5 -4,8 1 0 9 5 ENE 1026,1 0,0
13.01.2019 11:00:00 0,4 -5,1 1 1 6 4 ESE 1027,3 0,0
13.01.2019 10:00:00 -2,4 -5,4 0 0 1 0 N 1027,8 0,0
13.01.2019 09:00:00 -5,0 -5,4 0 0 0 0 N 1027,9 0,0
13.01.2019 08:00:00 -5,1 -5,4 0 0 0 0 N 1027,4 0,0
13.01.2019 07:00:00 -5,7 -6,0 0 0 0 0 N 1027,4 -
13.01.2019 06:00:00 -4,7 -5,1 0 0 0 0 N 1027,2 0,0
13.01.2019 05:00:00 -4,2 -4,8 0 0 0 0 N 1027,4 0,1
13.01.2019 04:00:00 -4,0 -4,5 0 0 0 0 N 1027,4 0,1
13.01.2019 03:00:00 -2,9 -3,6 0 0 0 0 N 1027,4 0,1
13.01.2019 02:00:00 -3,1 -3,9 0 0 0 0 N 1026,9 0,0
13.01.2019 01:00:00 -1,1 -2,2 0 0 0 0 N 1026,6 -
13.01.2019 00:00:00 -0,7 -2,5 0 0 0 0 N 1026,6 0,0
12.01.2019 23:00:00 -0,1 -2,7 0 0 0 0 N 1026,6 0,0
12.01.2019 22:00:00 1,8 -3,9 0 0 0 0 N 1025,6 0,0
12.01.2019 21:00:00 2,8 -4,8 0 0 0 0 N 1025,5 0,0
12.01.2019 20:00:00 5,2 -5,7 0 0 0 0 N 1024,4 0,7
12.01.2019 19:00:00 7,0 -7,5 0 0 0 0 N 1023,6 -
12.01.2019 18:00:00 9,4 -8,2 0 0 0 0 N 1022,8 0,8
12.01.2019 17:00:00 12,1 -7,5 0 0 0 0 N 1021,7 0,3
12.01.2019 16:00:00 12,2 -7,5 0 0 0 0 N 1021,8 0,0
12.01.2019 15:00:00 11,5 -7,5 0 0 0 0 N 1022,1 0,0
12.01.2019 14:00:00 9,7 -7,1 0 0 0 0 N 1023,3 0,7
12.01.2019 13:00:00 6,5 -6,4 0 0 0 0 N 1025,1 -

tt = Température de l'air
td = dewpoint
ff = Vitesse du vent
fx = gusts
dd = Direction du vent
ppp = reduced air pressure
rr = Quantités de précipitations

stations d'obs. à proximité